Valley Peak, Santa Cruz Island Reserve, California Weather observations

Data are for 10 minute period ending at time listed.
 Day   Time   Solar   Ave.   Ave.  Ave.  Vector  Max.   Baro.   Total    
  of    of     Rad.   Air    Rel.  Wind   Wind   Wind  Press.  Precip.   
Year   Day            Temp.  Hum.  Speed  Dir.   Gust                    
2014   (PST)  Kw/m2    F      %     mph   deg.    mph    mb.     in.     
-------------------------------------------------------------------------
 329   12:00   0.61   77.1    10    4.8   175     9.5   977.4    0.00 
 329   12:10   0.61   76.7    10    5.0   181     8.3   977.4    0.00 
 329   12:20   0.60   76.6    10    5.1   186     9.3   977.3    0.00 
 329   12:30   0.60   76.7    10    4.1   199     8.2   977.1    0.00 
 329   12:40   0.59   76.6    10    3.1   197     7.3   977.0    0.00 
 329   12:50   0.57   78.2    10    2.3   195     6.6   976.9    0.00 
 329   13:00   0.56   77.7    10    4.6   196    10.2   976.8    0.00 
 329   13:10   0.55   78.3    10    4.2   202     9.6   976.7    0.00 
 329   13:20   0.53   78.0     9    4.7   222    11.2   976.7    0.00 
 329   13:30   0.51   76.9    10    4.0   223     9.9   976.6    0.00 
 329   13:40   0.50   77.4    10    1.2    31     4.8   976.4    0.00 
 329   13:50   0.47   77.0    10    2.4     4     8.2   976.4    0.00 
 329   14:00   0.45   76.4    11    2.0   339     7.8   976.5    0.00 
 329   14:10   0.42   76.5    11    2.0    70     5.1   976.4    0.00 
 329   14:20   0.40   78.3    11    2.1    94     5.2   976.3    0.00 
 329   14:30   0.37   79.7    11    1.8    60     3.2   976.3    0.00 
 329   14:40   0.35   78.6    11    1.9    36     3.7   976.3    0.00 
 329   14:50   0.32   76.5    12    2.6    39     4.6   976.2    0.00 
 329   15:00   0.29   76.7    13    2.3    44     4.5   976.1    0.00 
 329   15:10   0.26   75.1    13    2.2    25     5.2   976.0    0.00 
 329   15:20   0.23   74.2    14    3.5   279     8.4   975.8    0.00 
 329   15:30   0.20   75.6    12    4.1   260     9.3   975.7    0.00 
 329   15:40   0.17   74.6    15    2.5   349     4.8   975.7    0.00 
 329   15:50   0.14   72.5    16    2.6   337     4.5   975.6    0.00 
 329   16:00   0.11   72.9    16    1.9   341     3.7   975.5    0.00 
 329   16:10   0.08   71.7    16    3.1   287     5.8   975.5    0.00 
 329   16:20   0.06   72.7    15    3.7   261     5.6   975.3    0.00 
 329   16:30   0.03   71.4    15    4.7   276     8.3   975.3    0.00 
 329   16:40   0.01   69.4    14    8.1   277    11.2   975.2    0.00 
 329   16:50   0.00   67.5    16    7.5   296     9.9   975.2    0.00 
 329   17:00   0.00   66.4    17    6.8   330     7.6   975.2    0.00 
 329   17:10   0.00   65.9    19    7.5   346     9.6   975.2    0.00 
 329   17:20   0.00   65.0    23    6.9   352    10.4   975.3    0.00 
 329   17:30   0.00   64.7    21    7.4   335     9.9   975.4    0.00 
 329   17:40   0.00   65.7    17    8.0   331    11.0   975.4    0.00 
 329   17:50   0.00   65.5    18    5.7   317     8.6   975.5    0.00 
 329   18:00   0.00   66.7    15    8.3   295    15.6   975.5    0.00 
 329   18:10   0.00   67.1    15    7.0   297    12.8   975.6    0.00 
 329   18:20   0.00   66.9    16    5.3   298     8.7   975.7    0.00 
 329   18:30   0.00   67.0    16    6.4   310    10.3   975.6    0.00 
 329   18:40   0.00   67.3    16    6.4   316    11.0   975.7    0.00 
 329   18:50   0.00   67.5    14    7.9   304    13.0   975.7    0.00 
 329   19:00   0.00   67.4    14    5.3   299     8.6   975.8    0.00 
 329   19:10   0.00   67.0    14    3.2   282     6.4   975.8    0.00 
 329   19:20   0.00   67.1    14    5.5   275    11.0   975.8    0.00 
 329   19:30   0.00   67.1    14    4.7   308    10.0   975.8    0.00 
 329   19:40   0.00   66.2    16    4.8   356     8.2   975.8    0.00 
 329   19:50   0.00   65.1    18    6.6   338    11.1   975.8    0.00 
 329   20:00   0.00   64.9    19    6.9   338     8.7   975.9    0.00 
 329   20:10   0.00   65.2    17    6.7   327     9.6   975.9    0.00 
 329   20:20   0.00   65.1    17    6.1   344     8.0   975.9    0.00 
 329   20:30   0.00   64.9    17    6.6   342     9.3   975.8    0.00 
 329   20:40   0.00   65.5    16    8.4   332    11.1   975.7    0.00 
 329   20:50   0.00   65.7    15    5.0   304     6.9   975.8    0.00 
 329   21:00   0.00   65.8    15    2.4   293     4.4   975.8    0.00 
 329   21:10   0.00   65.4    15    0.7   243     2.0   975.7    0.00 
 329   21:20   0.00   65.2    15    2.8    26     5.0   975.7    0.00 
 329   21:30   0.00   64.5    16    4.5    10     6.7   975.8    0.00 
 329   21:40   0.00   64.8    15    4.4   332     5.6   975.8    0.00 
 329   21:50   0.00   64.8    15    3.2   355     5.0   975.7    0.00 
 329   22:00   0.00   64.1    16    2.0    45     4.3   975.8    0.00 
 329   22:10   0.00   63.7    16    2.1   162     4.4   975.8    0.00 
 329   22:20   0.00   64.7    15    4.5   156     6.4   975.7    0.00 
 329   22:30   0.00   66.2    14    5.2   174     6.2   975.6    0.00 
 329   22:40   0.00   66.5    14    3.7   180     5.0   975.6    0.00 
 329   22:50   0.00   66.7    14    3.4   168     4.1   975.6    0.00 
 329   23:00   0.00   65.9    15    3.6   138     4.7   975.6    0.00 
 329   23:10   0.00   65.4    15    3.4   137     4.0   975.5    0.00 
 329   23:20   0.00   65.0    16    2.1    95     3.3   975.5    0.00 
 329   23:30   0.00   64.0    16    4.0   111     5.0   975.5    0.00 
 329   23:40   0.00   63.8    17    3.9   104     4.8   975.4    0.00 
 329   23:50   0.00   63.7    16    4.1    74     5.4   975.3    0.00 
 330    0:00   0.00   64.7    15    4.2    52     4.9   975.2    0.00 
 330    0:10   0.00   64.5    16    3.9    48     4.7   975.2    0.00 
 330    0:20   0.00   64.2    15    3.1    62     4.2   975.2    0.00 
 330    0:30   0.00   64.3    15    4.4    52     6.4   975.1    0.00 
 330    0:40   0.00   64.4    16    6.5    42     7.9   975.0    0.00 
 330    0:50   0.00   64.5    16    6.8    53     8.0   974.9    0.00 
 330    1:00   0.00   64.7    16    5.8    46     7.2   974.8    0.00 
 330    1:10   0.00   64.5    16    5.0    44     6.0   974.7    0.00 
 330    1:20   0.00   64.3    16    6.1    47     6.8   974.7    0.00 
 330    1:30   0.00   64.3    16    5.8    54     8.6   974.6    0.00 
 330    1:40   0.00   65.8    15    8.4    64     9.3   974.5    0.00 
 330    1:50   0.00   66.2    15    8.6    64     9.7   974.5    0.00 
 330    2:00   0.00   66.6    15    7.3    62     8.2   974.5    0.00 
 330    2:10   0.00   66.8    15    6.2    62     7.5   974.5    0.00 
 330    2:20   0.00   66.7    15    5.5    50     6.7   974.5    0.00 
 330    2:30   0.00   66.2    16    5.4    54     6.4   974.5    0.00 
 330    2:40   0.00   65.9    16    6.0    53     6.9   974.5    0.00 
 330    2:50   0.00   65.4    16    5.6    54     6.9   974.4    0.00 
 330    3:00   0.00   64.9    16    5.1    49     6.9   974.4    0.00 
 330    3:10   0.00   64.8    15    4.2    87     5.5   974.2    0.00 
 330    3:20   0.00   64.8    14    5.0    98     6.7   974.1    0.00 
 330    3:30   0.00   65.0    14    6.2    76     8.4   974.0    0.00 
 330    3:40   0.00   66.1    12    6.7    73     7.7   973.9    0.00 
 330    3:50   0.00   66.3    12    5.9    65     7.7   973.9    0.00 
 330    4:00   0.00   66.6    12    6.1    72     7.7   973.9    0.00 
 330    4:10   0.00   66.4    12    6.2    52     7.0   973.8    0.00 
 330    4:20   0.00   66.6    12    6.5    42     7.7   973.8    0.00 
 330    4:30   0.00   66.2    12    6.6    48     7.7   973.7    0.00 
 330    4:40   0.00   66.5    12    8.9    50    10.7   973.7    0.00 
 330    4:50   0.00   67.0    12    9.2    53    11.7   973.7    0.00 
 330    5:00   0.00   67.2    12    9.3    59    12.6   973.7    0.00 
 330    5:10   0.00   67.5    11    9.4    65    11.5   973.6    0.00 
 330    5:20   0.00   68.4    11    7.7    75    11.6   973.6    0.00 
 330    5:30   0.00   68.3    11    6.7    50     8.6   973.6    0.00 
 330    5:40   0.00   67.0    12    7.5    49     9.1   973.6    0.00 
 330    5:50   0.00   66.4    12    5.4    49     6.4   973.7    0.00 
 330    6:00   0.00   67.3    12    7.6    38    10.3   973.8    0.00 
 330    6:10   0.00   68.0    12    8.2    33     9.6   973.8    0.00 
 330    6:20   0.00   67.2    12   10.0    29    11.4   973.8    0.00 
 330    6:30   0.00   66.9    12   10.2    32    12.2   973.8    0.00 
 330    6:40   0.00   66.6    12   12.4    24    13.7   973.8    0.00 
 330    6:50   0.01   66.7    12   10.0    34    12.0   974.0    0.00 
 330    7:00   0.03   67.2    11    9.7    35    12.3   974.0    0.00 
 330    7:10   0.06   66.3    13    8.8    44    10.2   974.1    0.00 
 330    7:20   0.09   66.7    12    7.0    47     9.7   974.2    0.00 
 330    7:30   0.12   67.0    12    7.3    35    10.2   974.3    0.00 
 330    7:40   0.15   68.6    11    7.7    32    11.3   974.3    0.00 
 330    7:50   0.18   69.5    12    6.8    32    10.9   974.4    0.00 
 330    8:00   0.21   69.6    12    9.3    30    13.4   974.3    0.00 
 330    8:10   0.24   69.1    14    9.3    28    13.2   974.3    0.00 
 330    8:20   0.27   70.1    13    8.0    37    10.5   974.4    0.00 
 330    8:30   0.30   71.8    12    6.5    44     8.9   974.4    0.00 
 330    8:40   0.33   72.8    11    3.8    51     6.0   974.3    0.00 
 330    8:50   0.35   74.2    11    3.5    47     5.7   974.3    0.00 
 330    9:00   0.38   75.1    11    3.5    41     6.3   974.3    0.00 
 330    9:10   0.41   75.6    11    2.7    43     4.7   974.3    0.00 
 330    9:20   0.43   75.7    11    2.1    38     5.0   974.4    0.00 
 330    9:30   0.46   75.9    11    2.8    41     4.9   974.5    0.00 
 330    9:40   0.47   76.9    11    4.2    36     6.8   974.5    0.00 
 330    9:50   0.50   77.6    11    4.7    40     7.3   974.6    0.00 
 330   10:00   0.51   78.4    10    4.8    38     8.3   974.5    0.00 
 330   10:10   0.53   79.1    11    4.0    36     8.4   974.7    0.00 
 330   10:20   0.55   80.4    11    3.7    35     7.6   974.6    0.00 
 330   10:30   0.56   80.6    12    4.3    38     7.7   974.6    0.00 
 330   10:40   0.57   80.2    13    5.0    39     8.3   974.6    0.00 
 330   10:50   0.58   79.4    13    4.1    34     8.2   974.5    0.00 
 330   11:00   0.59   80.2    13    3.3    35     6.9   974.4    0.00 
 330   11:10   0.60   77.6    16    6.1    30     8.7   974.3    0.00 
 330   11:20   0.60   76.2    17    6.3    30     8.2   974.1    0.00 
 330   11:30   0.60   78.6    16    3.3    37     6.5   973.9    0.00 
 330   11:40   0.61   80.5    15    2.7    45     5.1   973.8    0.00 
 330   11:50   0.61   83.9    14    3.7    42     6.6   973.7    0.00 

Return to Valley Peak, Santa Cruz Island Reserve graphs page.


Western Regional Climate Center,wrcc@dri.edu